sensor_id;sensor_type;location;lat;lon;timestamp;P1;durP1;ratioP1;P2;durP2;ratioP2
28007;SDS011;15333;50.010;20.020;2023-11-19T00:00:49;63.58;;;37.58;;
28007;SDS011;15333;50.010;20.020;2023-11-19T00:04:11;66.80;;;38.08;;
28007;SDS011;15333;50.010;20.020;2023-11-19T00:07:12;65.50;;;38.08;;
28007;SDS011;15333;50.010;20.020;2023-11-19T00:10:14;63.42;;;37.22;;
28007;SDS011;15333;50.010;20.020;2023-11-19T00:13:22;68.00;;;38.17;;
28007;SDS011;15333;50.010;20.020;2023-11-19T00:16:23;68.43;;;38.42;;
28007;SDS011;15333;50.010;20.020;2023-11-19T00:19:24;70.75;;;38.83;;
28007;SDS011;15333;50.010;20.020;2023-11-19T00:22:26;69.38;;;39.45;;
28007;SDS011;15333;50.010;20.020;2023-11-19T00:25:28;66.00;;;38.10;;
28007;SDS011;15333;50.010;20.020;2023-11-19T00:28:29;71.05;;;41.35;;
28007;SDS011;15333;50.010;20.020;2023-11-19T00:31:30;72.43;;;40.95;;
28007;SDS011;15333;50.010;20.020;2023-11-19T00:34:32;68.40;;;38.97;;
28007;SDS011;15333;50.010;20.020;2023-11-19T00:37:33;65.90;;;37.28;;
28007;SDS011;15333;50.010;20.020;2023-11-19T00:40:34;71.35;;;37.60;;
28007;SDS011;15333;50.010;20.020;2023-11-19T00:43:35;67.68;;;37.17;;
28007;SDS011;15333;50.010;20.020;2023-11-19T00:46:36;70.25;;;38.38;;
28007;SDS011;15333;50.010;20.020;2023-11-19T00:49:37;69.28;;;36.55;;
28007;SDS011;15333;50.010;20.020;2023-11-19T00:52:38;69.80;;;39.83;;
28007;SDS011;15333;50.010;20.020;2023-11-19T00:55:39;69.63;;;36.65;;
28007;SDS011;15333;50.010;20.020;2023-11-19T00:58:40;68.43;;;39.33;;
28007;SDS011;15333;50.010;20.020;2023-11-19T01:01:41;63.60;;;38.03;;
28007;SDS011;15333;50.010;20.020;2023-11-19T01:04:42;67.13;;;37.03;;
28007;SDS011;15333;50.010;20.020;2023-11-19T01:07:43;65.75;;;38.97;;
28007;SDS011;15333;50.010;20.020;2023-11-19T01:10:44;62.33;;;36.17;;
28007;SDS011;15333;50.010;20.020;2023-11-19T01:13:45;68.13;;;39.88;;
28007;SDS011;15333;50.010;20.020;2023-11-19T01:16:46;70.43;;;41.50;;
28007;SDS011;15333;50.010;20.020;2023-11-19T01:19:47;62.03;;;37.38;;
28007;SDS011;15333;50.010;20.020;2023-11-19T01:22:48;65.25;;;36.05;;
28007;SDS011;15333;50.010;20.020;2023-11-19T01:25:49;66.68;;;38.65;;
28007;SDS011;15333;50.010;20.020;2023-11-19T01:28:49;65.20;;;37.97;;
28007;SDS011;15333;50.010;20.020;2023-11-19T01:31:53;63.28;;;37.83;;
28007;SDS011;15333;50.010;20.020;2023-11-19T01:34:54;63.83;;;35.75;;
28007;SDS011;15333;50.010;20.020;2023-11-19T01:37:55;65.55;;;37.10;;
28007;SDS011;15333;50.010;20.020;2023-11-19T01:40:56;67.80;;;38.00;;
28007;SDS011;15333;50.010;20.020;2023-11-19T01:43:58;67.85;;;36.97;;
28007;SDS011;15333;50.010;20.020;2023-11-19T01:46:59;68.90;;;40.15;;
28007;SDS011;15333;50.010;20.020;2023-11-19T01:50:01;67.40;;;38.60;;
28007;SDS011;15333;50.010;20.020;2023-11-19T01:53:07;69.93;;;37.45;;
28007;SDS011;15333;50.010;20.020;2023-11-19T01:56:08;64.82;;;36.28;;
28007;SDS011;15333;50.010;20.020;2023-11-19T01:59:10;67.10;;;36.50;;
28007;SDS011;15333;50.010;20.020;2023-11-19T02:02:14;64.00;;;35.88;;
28007;SDS011;15333;50.010;20.020;2023-11-19T02:05:15;65.88;;;35.50;;
28007;SDS011;15333;50.010;20.020;2023-11-19T02:08:17;60.25;;;35.58;;
28007;SDS011;15333;50.010;20.020;2023-11-19T02:11:18;57.53;;;34.35;;
28007;SDS011;15333;50.010;20.020;2023-11-19T02:14:19;56.35;;;34.13;;
28007;SDS011;15333;50.010;20.020;2023-11-19T02:17:27;60.30;;;36.30;;
28007;SDS011;15333;50.010;20.020;2023-11-19T02:20:28;61.10;;;34.03;;
28007;SDS011;15333;50.010;20.020;2023-11-19T02:23:29;54.58;;;31.65;;
28007;SDS011;15333;50.010;20.020;2023-11-19T02:26:33;61.67;;;35.38;;
28007;SDS011;15333;50.010;20.020;2023-11-19T02:29:52;63.38;;;36.55;;
28007;SDS011;15333;50.010;20.020;2023-11-19T02:32:54;59.67;;;36.17;;
28007;SDS011;15333;50.010;20.020;2023-11-19T02:35:57;60.90;;;35.17;;
28007;SDS011;15333;50.010;20.020;2023-11-19T02:38:59;66.03;;;38.63;;
28007;SDS011;15333;50.010;20.020;2023-11-19T02:42:00;65.90;;;39.35;;
28007;SDS011;15333;50.010;20.020;2023-11-19T02:45:01;65.20;;;38.65;;
28007;SDS011;15333;50.010;20.020;2023-11-19T02:48:02;61.58;;;36.05;;
28007;SDS011;15333;50.010;20.020;2023-11-19T02:51:03;66.28;;;35.90;;
28007;SDS011;15333;50.010;20.020;2023-11-19T02:54:04;62.50;;;35.70;;
28007;SDS011;15333;50.010;20.020;2023-11-19T02:57:06;62.03;;;34.92;;
28007;SDS011;15333;50.010;20.020;2023-11-19T03:00:08;65.72;;;36.88;;
28007;SDS011;15333;50.010;20.020;2023-11-19T03:03:12;65.32;;;37.53;;
28007;SDS011;15333;50.010;20.020;2023-11-19T03:06:22;64.17;;;37.23;;
28007;SDS011;15333;50.010;20.020;2023-11-19T03:09:23;58.60;;;35.95;;
28007;SDS011;15333;50.010;20.020;2023-11-19T03:12:24;61.63;;;35.35;;
28007;SDS011;15333;50.010;20.020;2023-11-19T03:15:26;64.85;;;35.83;;
28007;SDS011;15333;50.010;20.020;2023-11-19T03:18:27;68.72;;;40.20;;
28007;SDS011;15333;50.010;20.020;2023-11-19T03:21:29;71.28;;;41.15;;
28007;SDS011;15333;50.010;20.020;2023-11-19T03:24:31;73.10;;;40.00;;
28007;SDS011;15333;50.010;20.020;2023-11-19T03:27:32;73.68;;;40.45;;
28007;SDS011;15333;50.010;20.020;2023-11-19T03:30:34;78.78;;;43.15;;
28007;SDS011;15333;50.010;20.020;2023-11-19T03:33:36;78.10;;;41.55;;
28007;SDS011;15333;50.010;20.020;2023-11-19T03:36:37;81.65;;;41.97;;
28007;SDS011;15333;50.010;20.020;2023-11-19T03:39:38;78.15;;;42.58;;
28007;SDS011;15333;50.010;20.020;2023-11-19T03:42:39;77.07;;;43.13;;
28007;SDS011;15333;50.010;20.020;2023-11-19T03:45:40;75.40;;;41.08;;
28007;SDS011;15333;50.010;20.020;2023-11-19T03:48:42;81.57;;;43.40;;
28007;SDS011;15333;50.010;20.020;2023-11-19T03:51:44;78.22;;;44.95;;
28007;SDS011;15333;50.010;20.020;2023-11-19T03:54:44;80.68;;;45.38;;
28007;SDS011;15333;50.010;20.020;2023-11-19T03:57:47;79.72;;;43.40;;
28007;SDS011;15333;50.010;20.020;2023-11-19T04:00:48;82.65;;;45.03;;
28007;SDS011;15333;50.010;20.020;2023-11-19T04:03:49;87.72;;;47.88;;
28007;SDS011;15333;50.010;20.020;2023-11-19T04:06:50;86.95;;;47.90;;
28007;SDS011;15333;50.010;20.020;2023-11-19T04:09:51;85.55;;;45.90;;
28007;SDS011;15333;50.010;20.020;2023-11-19T04:12:52;89.93;;;46.47;;
28007;SDS011;15333;50.010;20.020;2023-11-19T04:15:53;92.50;;;49.17;;
28007;SDS011;15333;50.010;20.020;2023-11-19T04:18:53;93.90;;;49.72;;
28007;SDS011;15333;50.010;20.020;2023-11-19T04:21:54;83.70;;;45.10;;
28007;SDS011;15333;50.010;20.020;2023-11-19T04:24:55;91.75;;;49.63;;
28007;SDS011;15333;50.010;20.020;2023-11-19T04:27:57;89.40;;;49.08;;
28007;SDS011;15333;50.010;20.020;2023-11-19T04:30:58;85.82;;;45.97;;
28007;SDS011;15333;50.010;20.020;2023-11-19T04:33:59;92.88;;;47.50;;
28007;SDS011;15333;50.010;20.020;2023-11-19T04:37:00;92.47;;;48.95;;
28007;SDS011;15333;50.010;20.020;2023-11-19T04:40:03;94.72;;;49.72;;
28007;SDS011;15333;50.010;20.020;2023-11-19T04:43:04;101.78;;;53.10;;
28007;SDS011;15333;50.010;20.020;2023-11-19T04:46:05;97.80;;;52.13;;
28007;SDS011;15333;50.010;20.020;2023-11-19T04:49:06;97.30;;;48.83;;
28007;SDS011;15333;50.010;20.020;2023-11-19T04:52:07;94.75;;;49.67;;
28007;SDS011;15333;50.010;20.020;2023-11-19T04:55:08;100.60;;;53.35;;
28007;SDS011;15333;50.010;20.020;2023-11-19T04:58:12;102.15;;;55.78;;
28007;SDS011;15333;50.010;20.020;2023-11-19T05:01:13;102.25;;;52.10;;
28007;SDS011;15333;50.010;20.020;2023-11-19T05:04:17;102.68;;;52.08;;
28007;SDS011;15333;50.010;20.020;2023-11-19T05:07:19;102.07;;;54.58;;
28007;SDS011;15333;50.010;20.020;2023-11-19T05:10:20;104.50;;;56.13;;
28007;SDS011;15333;50.010;20.020;2023-11-19T05:13:20;110.38;;;53.08;;
28007;SDS011;15333;50.010;20.020;2023-11-19T05:16:21;101.88;;;54.85;;
28007;SDS011;15333;50.010;20.020;2023-11-19T05:19:22;101.22;;;54.35;;
28007;SDS011;15333;50.010;20.020;2023-11-19T05:22:23;107.93;;;54.88;;
28007;SDS011;15333;50.010;20.020;2023-11-19T05:25:24;103.28;;;50.85;;
28007;SDS011;15333;50.010;20.020;2023-11-19T05:28:25;105.93;;;50.97;;
28007;SDS011;15333;50.010;20.020;2023-11-19T05:31:26;103.70;;;55.30;;
28007;SDS011;15333;50.010;20.020;2023-11-19T05:34:27;110.22;;;54.75;;
28007;SDS011;15333;50.010;20.020;2023-11-19T05:37:28;107.50;;;52.85;;
28007;SDS011;15333;50.010;20.020;2023-11-19T05:40:29;106.10;;;51.38;;
28007;SDS011;15333;50.010;20.020;2023-11-19T05:43:29;103.32;;;52.78;;
28007;SDS011;15333;50.010;20.020;2023-11-19T05:46:30;101.93;;;52.45;;
28007;SDS011;15333;50.010;20.020;2023-11-19T05:49:31;105.50;;;52.03;;
28007;SDS011;15333;50.010;20.020;2023-11-19T05:52:32;105.25;;;52.28;;
28007;SDS011;15333;50.010;20.020;2023-11-19T05:55:33;109.28;;;56.40;;
28007;SDS011;15333;50.010;20.020;2023-11-19T05:58:35;104.38;;;53.88;;
28007;SDS011;15333;50.010;20.020;2023-11-19T06:01:36;105.82;;;52.70;;
28007;SDS011;15333;50.010;20.020;2023-11-19T06:04:37;104.07;;;51.00;;
28007;SDS011;15333;50.010;20.020;2023-11-19T06:07:37;110.32;;;51.72;;
28007;SDS011;15333;50.010;20.020;2023-11-19T06:10:43;103.93;;;51.40;;
28007;SDS011;15333;50.010;20.020;2023-11-19T06:13:46;99.38;;;51.83;;
28007;SDS011;15333;50.010;20.020;2023-11-19T06:16:48;100.20;;;48.72;;
28007;SDS011;15333;50.010;20.020;2023-11-19T06:19:49;107.15;;;51.03;;
28007;SDS011;15333;50.010;20.020;2023-11-19T06:22:50;98.70;;;51.60;;
28007;SDS011;15333;50.010;20.020;2023-11-19T06:25:50;96.72;;;50.30;;
28007;SDS011;15333;50.010;20.020;2023-11-19T06:28:51;101.53;;;51.45;;
28007;SDS011;15333;50.010;20.020;2023-11-19T06:31:52;97.32;;;51.92;;
28007;SDS011;15333;50.010;20.020;2023-11-19T06:34:53;100.47;;;51.45;;
28007;SDS011;15333;50.010;20.020;2023-11-19T06:37:54;101.82;;;49.35;;
28007;SDS011;15333;50.010;20.020;2023-11-19T06:40:55;105.15;;;54.83;;
28007;SDS011;15333;50.010;20.020;2023-11-19T06:43:56;97.03;;;49.67;;
28007;SDS011;15333;50.010;20.020;2023-11-19T06:46:57;92.75;;;49.65;;
28007;SDS011;15333;50.010;20.020;2023-11-19T06:49:58;90.78;;;48.28;;
28007;SDS011;15333;50.010;20.020;2023-11-19T06:52:59;84.95;;;44.85;;
28007;SDS011;15333;50.010;20.020;2023-11-19T06:56:00;80.88;;;42.03;;
28007;SDS011;15333;50.010;20.020;2023-11-19T06:59:01;76.40;;;41.67;;
28007;SDS011;15333;50.010;20.020;2023-11-19T07:02:02;73.75;;;39.20;;
28007;SDS011;15333;50.010;20.020;2023-11-19T07:05:03;73.20;;;40.00;;
28007;SDS011;15333;50.010;20.020;2023-11-19T07:08:08;71.68;;;39.88;;
28007;SDS011;15333;50.010;20.020;2023-11-19T07:11:09;72.35;;;36.85;;
28007;SDS011;15333;50.010;20.020;2023-11-19T07:14:10;70.20;;;36.17;;
28007;SDS011;15333;50.010;20.020;2023-11-19T07:17:12;64.75;;;34.63;;
28007;SDS011;15333;50.010;20.020;2023-11-19T07:20:12;61.25;;;33.72;;
28007;SDS011;15333;50.010;20.020;2023-11-19T07:23:15;60.90;;;32.08;;
28007;SDS011;15333;50.010;20.020;2023-11-19T07:26:17;54.10;;;30.35;;
28007;SDS011;15333;50.010;20.020;2023-11-19T07:29:18;48.97;;;29.23;;
28007;SDS011;15333;50.010;20.020;2023-11-19T07:32:18;53.05;;;30.65;;
28007;SDS011;15333;50.010;20.020;2023-11-19T07:35:19;48.60;;;28.08;;
28007;SDS011;15333;50.010;20.020;2023-11-19T07:38:20;51.47;;;29.00;;
28007;SDS011;15333;50.010;20.020;2023-11-19T07:41:21;52.67;;;30.13;;
28007;SDS011;15333;50.010;20.020;2023-11-19T07:44:22;48.60;;;26.20;;
28007;SDS011;15333;50.010;20.020;2023-11-19T07:47:23;43.72;;;24.65;;
28007;SDS011;15333;50.010;20.020;2023-11-19T07:50:23;42.80;;;24.17;;
28007;SDS011;15333;50.010;20.020;2023-11-19T07:53:25;45.67;;;24.85;;
28007;SDS011;15333;50.010;20.020;2023-11-19T07:56:26;42.63;;;24.23;;
28007;SDS011;15333;50.010;20.020;2023-11-19T07:59:27;44.17;;;24.45;;
28007;SDS011;15333;50.010;20.020;2023-11-19T08:02:28;39.58;;;22.42;;
28007;SDS011;15333;50.010;20.020;2023-11-19T08:05:29;39.53;;;23.73;;
28007;SDS011;15333;50.010;20.020;2023-11-19T08:08:31;38.53;;;21.30;;
28007;SDS011;15333;50.010;20.020;2023-11-19T08:11:34;40.53;;;22.52;;
28007;SDS011;15333;50.010;20.020;2023-11-19T08:14:34;34.20;;;20.10;;
28007;SDS011;15333;50.010;20.020;2023-11-19T08:17:36;35.58;;;20.05;;
28007;SDS011;15333;50.010;20.020;2023-11-19T08:20:37;33.00;;;19.70;;
28007;SDS011;15333;50.010;20.020;2023-11-19T08:23:38;30.95;;;18.10;;
28007;SDS011;15333;50.010;20.020;2023-11-19T08:26:39;33.78;;;20.02;;
28007;SDS011;15333;50.010;20.020;2023-11-19T08:29:40;33.25;;;20.08;;
28007;SDS011;15333;50.010;20.020;2023-11-19T08:32:40;36.53;;;20.25;;
28007;SDS011;15333;50.010;20.020;2023-11-19T08:35:41;34.42;;;18.63;;
28007;SDS011;15333;50.010;20.020;2023-11-19T08:38:42;31.27;;;18.77;;
28007;SDS011;15333;50.010;20.020;2023-11-19T08:41:43;28.95;;;17.55;;
28007;SDS011;15333;50.010;20.020;2023-11-19T08:44:44;31.67;;;18.88;;
28007;SDS011;15333;50.010;20.020;2023-11-19T08:47:51;34.40;;;19.10;;
28007;SDS011;15333;50.010;20.020;2023-11-19T08:50:51;28.98;;;16.98;;
28007;SDS011;15333;50.010;20.020;2023-11-19T08:53:52;29.30;;;16.90;;
28007;SDS011;15333;50.010;20.020;2023-11-19T08:56:53;25.00;;;15.55;;
28007;SDS011;15333;50.010;20.020;2023-11-19T08:59:54;28.30;;;17.00;;
28007;SDS011;15333;50.010;20.020;2023-11-19T09:02:55;27.83;;;15.75;;
28007;SDS011;15333;50.010;20.020;2023-11-19T09:05:56;26.58;;;16.02;;
28007;SDS011;15333;50.010;20.020;2023-11-19T09:08:56;28.27;;;17.42;;
28007;SDS011;15333;50.010;20.020;2023-11-19T09:12:01;29.60;;;16.00;;
28007;SDS011;15333;50.010;20.020;2023-11-19T09:15:04;25.35;;;15.68;;
28007;SDS011;15333;50.010;20.020;2023-11-19T09:18:05;29.02;;;16.85;;
28007;SDS011;15333;50.010;20.020;2023-11-19T09:21:05;26.42;;;15.63;;
28007;SDS011;15333;50.010;20.020;2023-11-19T09:24:07;29.25;;;16.85;;
28007;SDS011;15333;50.010;20.020;2023-11-19T09:27:08;29.20;;;16.48;;
28007;SDS011;15333;50.010;20.020;2023-11-19T09:30:09;33.65;;;17.65;;
28007;SDS011;15333;50.010;20.020;2023-11-19T09:33:10;29.30;;;17.88;;
28007;SDS011;15333;50.010;20.020;2023-11-19T09:36:14;28.40;;;16.63;;
28007;SDS011;15333;50.010;20.020;2023-11-19T09:39:16;28.67;;;16.02;;
28007;SDS011;15333;50.010;20.020;2023-11-19T09:42:18;27.88;;;16.55;;
28007;SDS011;15333;50.010;20.020;2023-11-19T09:45:20;28.77;;;16.15;;
28007;SDS011;15333;50.010;20.020;2023-11-19T09:48:21;32.55;;;17.33;;
28007;SDS011;15333;50.010;20.020;2023-11-19T09:51:25;29.27;;;16.80;;
28007;SDS011;15333;50.010;20.020;2023-11-19T09:54:26;30.35;;;16.10;;
28007;SDS011;15333;50.010;20.020;2023-11-19T09:57:27;30.95;;;17.50;;
28007;SDS011;15333;50.010;20.020;2023-11-19T10:00:31;31.45;;;18.08;;
28007;SDS011;15333;50.010;20.020;2023-11-19T10:03:33;29.08;;;17.83;;
28007;SDS011;15333;50.010;20.020;2023-11-19T10:06:40;30.15;;;17.45;;
28007;SDS011;15333;50.010;20.020;2023-11-19T10:09:42;29.92;;;18.40;;
28007;SDS011;15333;50.010;20.020;2023-11-19T10:12:47;31.17;;;17.90;;
28007;SDS011;15333;50.010;20.020;2023-11-19T10:15:48;29.00;;;17.40;;
28007;SDS011;15333;50.010;20.020;2023-11-19T10:18:49;30.83;;;18.08;;
28007;SDS011;15333;50.010;20.020;2023-11-19T10:21:51;37.22;;;18.98;;
28007;SDS011;15333;50.010;20.020;2023-11-19T10:24:53;29.05;;;17.27;;
28007;SDS011;15333;50.010;20.020;2023-11-19T10:27:54;30.77;;;18.67;;
28007;SDS011;15333;50.010;20.020;2023-11-19T10:30:56;26.65;;;16.67;;
28007;SDS011;15333;50.010;20.020;2023-11-19T10:33:57;29.73;;;16.40;;
28007;SDS011;15333;50.010;20.020;2023-11-19T10:36:58;25.90;;;14.75;;
28007;SDS011;15333;50.010;20.020;2023-11-19T10:39:58;30.02;;;16.92;;
28007;SDS011;15333;50.010;20.020;2023-11-19T10:43:02;26.20;;;16.00;;
28007;SDS011;15333;50.010;20.020;2023-11-19T10:46:10;38.17;;;15.48;;
28007;SDS011;15333;50.010;20.020;2023-11-19T10:49:13;26.95;;;14.52;;
28007;SDS011;15333;50.010;20.020;2023-11-19T10:52:17;26.75;;;15.70;;
28007;SDS011;15333;50.010;20.020;2023-11-19T10:55:21;22.83;;;14.57;;
28007;SDS011;15333;50.010;20.020;2023-11-19T10:58:28;23.15;;;13.07;;
28007;SDS011;15333;50.010;20.020;2023-11-19T11:01:45;27.23;;;13.90;;
28007;SDS011;15333;50.010;20.020;2023-11-19T11:04:48;23.83;;;14.35;;
28007;SDS011;15333;50.010;20.020;2023-11-19T11:07:50;26.75;;;14.07;;
28007;SDS011;15333;50.010;20.020;2023-11-19T11:10:53;22.10;;;13.43;;
28007;SDS011;15333;50.010;20.020;2023-11-19T11:13:55;24.05;;;14.23;;
28007;SDS011;15333;50.010;20.020;2023-11-19T11:17:00;23.92;;;14.27;;
28007;SDS011;15333;50.010;20.020;2023-11-19T11:20:03;22.88;;;14.65;;
28007;SDS011;15333;50.010;20.020;2023-11-19T11:29:57;19.40;;;12.15;;
28007;SDS011;15333;50.010;20.020;2023-11-19T11:36:39;22.33;;;12.60;;
28007;SDS011;15333;50.010;20.020;2023-11-19T11:39:55;19.45;;;11.98;;
28007;SDS011;15333;50.010;20.020;2023-11-19T11:42:59;23.65;;;13.93;;
28007;SDS011;15333;50.010;20.020;2023-11-19T11:46:00;19.30;;;11.75;;
28007;SDS011;15333;50.010;20.020;2023-11-19T11:49:04;21.42;;;13.65;;
28007;SDS011;15333;50.010;20.020;2023-11-19T11:52:07;21.02;;;12.90;;
28007;SDS011;15333;50.010;20.020;2023-11-19T11:55:08;22.83;;;13.00;;
28007;SDS011;15333;50.010;20.020;2023-11-19T11:58:10;22.88;;;13.32;;
28007;SDS011;15333;50.010;20.020;2023-11-19T12:01:14;20.38;;;12.25;;
28007;SDS011;15333;50.010;20.020;2023-11-19T12:04:21;20.20;;;12.18;;
28007;SDS011;15333;50.010;20.020;2023-11-19T12:07:22;23.50;;;13.93;;
28007;SDS011;15333;50.010;20.020;2023-11-19T12:10:24;18.42;;;11.48;;
28007;SDS011;15333;50.010;20.020;2023-11-19T12:17:27;16.30;;;10.75;;
28007;SDS011;15333;50.010;20.020;2023-11-19T12:20:34;21.15;;;12.95;;
28007;SDS011;15333;50.010;20.020;2023-11-19T12:23:44;18.38;;;11.63;;
28007;SDS011;15333;50.010;20.020;2023-11-19T12:26:48;20.27;;;12.43;;
28007;SDS011;15333;50.010;20.020;2023-11-19T12:29:50;19.15;;;12.98;;
28007;SDS011;15333;50.010;20.020;2023-11-19T12:32:51;16.80;;;11.13;;
28007;SDS011;15333;50.010;20.020;2023-11-19T12:35:56;18.42;;;12.18;;
28007;SDS011;15333;50.010;20.020;2023-11-19T12:38:58;17.58;;;11.90;;
28007;SDS011;15333;50.010;20.020;2023-11-19T12:41:59;19.98;;;12.77;;
28007;SDS011;15333;50.010;20.020;2023-11-19T12:44:59;18.45;;;12.05;;
28007;SDS011;15333;50.010;20.020;2023-11-19T12:48:07;14.02;;;9.93;;
28007;SDS011;15333;50.010;20.020;2023-11-19T12:51:10;17.60;;;10.27;;
28007;SDS011;15333;50.010;20.020;2023-11-19T12:54:10;15.27;;;10.93;;
28007;SDS011;15333;50.010;20.020;2023-11-19T12:57:12;19.20;;;12.18;;
28007;SDS011;15333;50.010;20.020;2023-11-19T13:00:23;19.90;;;12.90;;
28007;SDS011;15333;50.010;20.020;2023-11-19T13:03:32;20.25;;;13.10;;
28007;SDS011;15333;50.010;20.020;2023-11-19T13:06:34;21.30;;;13.63;;
28007;SDS011;15333;50.010;20.020;2023-11-19T13:09:35;26.38;;;16.02;;
28007;SDS011;15333;50.010;20.020;2023-11-19T13:12:36;24.80;;;15.85;;
28007;SDS011;15333;50.010;20.020;2023-11-19T13:15:37;24.23;;;15.27;;
28007;SDS011;15333;50.010;20.020;2023-11-19T13:18:38;23.48;;;14.88;;
28007;SDS011;15333;50.010;20.020;2023-11-19T13:21:39;23.88;;;14.35;;
28007;SDS011;15333;50.010;20.020;2023-11-19T13:24:40;24.20;;;15.32;;
28007;SDS011;15333;50.010;20.020;2023-11-19T13:27:45;21.95;;;16.13;;
28007;SDS011;15333;50.010;20.020;2023-11-19T13:30:46;26.85;;;18.33;;
28007;SDS011;15333;50.010;20.020;2023-11-19T13:33:47;29.48;;;18.85;;
28007;SDS011;15333;50.010;20.020;2023-11-19T13:36:51;35.08;;;21.83;;
28007;SDS011;15333;50.010;20.020;2023-11-19T13:39:51;37.00;;;22.23;;
28007;SDS011;15333;50.010;20.020;2023-11-19T13:42:52;37.10;;;22.10;;
28007;SDS011;15333;50.010;20.020;2023-11-19T13:45:56;30.70;;;19.98;;
28007;SDS011;15333;50.010;20.020;2023-11-19T13:48:58;31.27;;;20.00;;
28007;SDS011;15333;50.010;20.020;2023-11-19T13:51:59;36.40;;;20.60;;
28007;SDS011;15333;50.010;20.020;2023-11-19T13:55:00;33.72;;;20.63;;
28007;SDS011;15333;50.010;20.020;2023-11-19T13:58:01;36.70;;;21.58;;
28007;SDS011;15333;50.010;20.020;2023-11-19T14:01:02;34.72;;;20.95;;
28007;SDS011;15333;50.010;20.020;2023-11-19T14:04:03;36.30;;;23.15;;
28007;SDS011;15333;50.010;20.020;2023-11-19T14:07:04;36.38;;;23.83;;
28007;SDS011;15333;50.010;20.020;2023-11-19T14:10:05;33.60;;;22.45;;
28007;SDS011;15333;50.010;20.020;2023-11-19T14:13:07;37.05;;;21.90;;
28007;SDS011;15333;50.010;20.020;2023-11-19T14:16:08;30.80;;;20.88;;
28007;SDS011;15333;50.010;20.020;2023-11-19T14:19:09;35.63;;;21.63;;
28007;SDS011;15333;50.010;20.020;2023-11-19T14:22:10;36.08;;;22.58;;
28007;SDS011;15333;50.010;20.020;2023-11-19T14:25:12;38.97;;;24.05;;
28007;SDS011;15333;50.010;20.020;2023-11-19T14:28:12;40.33;;;25.83;;
28007;SDS011;15333;50.010;20.020;2023-11-19T14:31:13;38.42;;;24.05;;
28007;SDS011;15333;50.010;20.020;2023-11-19T14:34:14;46.30;;;26.42;;
28007;SDS011;15333;50.010;20.020;2023-11-19T14:37:15;47.25;;;29.00;;
28007;SDS011;15333;50.010;20.020;2023-11-19T14:40:16;47.80;;;28.08;;
28007;SDS011;15333;50.010;20.020;2023-11-19T14:43:17;43.83;;;26.63;;
28007;SDS011;15333;50.010;20.020;2023-11-19T14:46:18;46.08;;;28.20;;
28007;SDS011;15333;50.010;20.020;2023-11-19T14:49:19;46.38;;;28.58;;
28007;SDS011;15333;50.010;20.020;2023-11-19T14:52:20;47.53;;;29.23;;
28007;SDS011;15333;50.010;20.020;2023-11-19T14:55:21;49.05;;;30.00;;
28007;SDS011;15333;50.010;20.020;2023-11-19T14:58:21;51.40;;;31.35;;
28007;SDS011;15333;50.010;20.020;2023-11-19T15:01:22;54.08;;;32.75;;
28007;SDS011;15333;50.010;20.020;2023-11-19T15:04:23;54.67;;;31.90;;
28007;SDS011;15333;50.010;20.020;2023-11-19T15:07:24;55.28;;;35.40;;
28007;SDS011;15333;50.010;20.020;2023-11-19T15:10:25;85.53;;;55.90;;
28007;SDS011;15333;50.010;20.020;2023-11-19T15:13:26;64.25;;;38.25;;
28007;SDS011;15333;50.010;20.020;2023-11-19T15:16:26;68.30;;;40.88;;
28007;SDS011;15333;50.010;20.020;2023-11-19T15:19:32;63.33;;;39.38;;
28007;SDS011;15333;50.010;20.020;2023-11-19T15:22:33;65.20;;;39.75;;
28007;SDS011;15333;50.010;20.020;2023-11-19T15:25:34;69.82;;;40.50;;
28007;SDS011;15333;50.010;20.020;2023-11-19T15:28:37;73.38;;;42.13;;
28007;SDS011;15333;50.010;20.020;2023-11-19T15:31:38;79.82;;;44.97;;
28007;SDS011;15333;50.010;20.020;2023-11-19T15:34:38;78.80;;;44.40;;
28007;SDS011;15333;50.010;20.020;2023-11-19T15:37:41;80.43;;;48.10;;
28007;SDS011;15333;50.010;20.020;2023-11-19T15:40:44;76.88;;;45.67;;
28007;SDS011;15333;50.010;20.020;2023-11-19T15:43:46;82.60;;;48.00;;
28007;SDS011;15333;50.010;20.020;2023-11-19T15:46:46;85.57;;;47.22;;
28007;SDS011;15333;50.010;20.020;2023-11-19T15:49:47;71.45;;;43.83;;
28007;SDS011;15333;50.010;20.020;2023-11-19T15:52:48;80.80;;;48.25;;
28007;SDS011;15333;50.010;20.020;2023-11-19T15:55:50;76.40;;;45.78;;
28007;SDS011;15333;50.010;20.020;2023-11-19T15:58:53;79.53;;;47.83;;
28007;SDS011;15333;50.010;20.020;2023-11-19T16:01:54;88.97;;;50.33;;
28007;SDS011;15333;50.010;20.020;2023-11-19T16:04:55;83.63;;;47.83;;
28007;SDS011;15333;50.010;20.020;2023-11-19T16:07:56;73.88;;;42.55;;
28007;SDS011;15333;50.010;20.020;2023-11-19T16:10:56;67.07;;;38.58;;
28007;SDS011;15333;50.010;20.020;2023-11-19T16:13:58;69.68;;;38.08;;
28007;SDS011;15333;50.010;20.020;2023-11-19T16:16:59;54.95;;;33.45;;
28007;SDS011;15333;50.010;20.020;2023-11-19T16:20:01;55.60;;;35.00;;
28007;SDS011;15333;50.010;20.020;2023-11-19T16:23:07;59.72;;;36.88;;
28007;SDS011;15333;50.010;20.020;2023-11-19T16:26:08;56.60;;;34.90;;
28007;SDS011;15333;50.010;20.020;2023-11-19T16:29:08;58.83;;;35.20;;
28007;SDS011;15333;50.010;20.020;2023-11-19T16:32:10;55.55;;;33.92;;
28007;SDS011;15333;50.010;20.020;2023-11-19T16:35:11;49.45;;;30.13;;
28007;SDS011;15333;50.010;20.020;2023-11-19T16:38:11;50.20;;;31.50;;
28007;SDS011;15333;50.010;20.020;2023-11-19T16:41:13;50.70;;;30.67;;
28007;SDS011;15333;50.010;20.020;2023-11-19T16:44:19;54.42;;;32.28;;
28007;SDS011;15333;50.010;20.020;2023-11-19T16:47:20;50.30;;;31.98;;
28007;SDS011;15333;50.010;20.020;2023-11-19T16:50:21;50.05;;;31.13;;
28007;SDS011;15333;50.010;20.020;2023-11-19T16:53:22;55.78;;;32.33;;
28007;SDS011;15333;50.010;20.020;2023-11-19T16:56:23;53.13;;;33.88;;
28007;SDS011;15333;50.010;20.020;2023-11-19T16:59:24;53.53;;;32.78;;
28007;SDS011;15333;50.010;20.020;2023-11-19T17:02:25;50.22;;;30.65;;
28007;SDS011;15333;50.010;20.020;2023-11-19T17:05:25;51.47;;;31.60;;
28007;SDS011;15333;50.010;20.020;2023-11-19T17:08:26;55.78;;;33.08;;
28007;SDS011;15333;50.010;20.020;2023-11-19T17:11:27;50.33;;;33.42;;
28007;SDS011;15333;50.010;20.020;2023-11-19T17:14:28;52.35;;;33.15;;
28007;SDS011;15333;50.010;20.020;2023-11-19T17:17:32;54.65;;;33.47;;
28007;SDS011;15333;50.010;20.020;2023-11-19T17:20:35;55.38;;;33.08;;
28007;SDS011;15333;50.010;20.020;2023-11-19T17:23:37;52.38;;;32.35;;
28007;SDS011;15333;50.010;20.020;2023-11-19T17:26:39;53.90;;;33.58;;
28007;SDS011;15333;50.010;20.020;2023-11-19T17:29:40;55.05;;;34.13;;
28007;SDS011;15333;50.010;20.020;2023-11-19T17:32:41;58.35;;;34.28;;
28007;SDS011;15333;50.010;20.020;2023-11-19T17:35:42;52.88;;;35.05;;
28007;SDS011;15333;50.010;20.020;2023-11-19T17:38:43;56.58;;;36.53;;
28007;SDS011;15333;50.010;20.020;2023-11-19T17:41:44;57.40;;;34.05;;